createdAt,value
2023-04-20T00:01:04.892Z,2.70
2023-04-20T00:03:33.157Z,2.78
2023-04-20T00:06:02.498Z,2.38
2023-04-20T00:08:33.313Z,2.72
2023-04-20T00:11:00.985Z,3.25
2023-04-20T00:13:30.860Z,4.68
2023-04-20T00:18:26.992Z,3.15
2023-04-20T00:20:54.572Z,2.88
2023-04-20T00:23:22.078Z,2.80
2023-04-20T00:25:51.711Z,3.47
2023-04-20T00:28:19.349Z,3.53
2023-04-20T00:30:46.877Z,3.63
2023-04-20T00:33:14.781Z,3.70
2023-04-20T00:35:43.130Z,3.50
2023-04-20T00:38:13.606Z,3.92
2023-04-20T00:40:44.097Z,4.10
2023-04-20T00:43:13.303Z,3.95
2023-04-20T00:45:41.211Z,4.50
2023-04-20T00:48:11.059Z,4.25
2023-04-20T00:50:40.033Z,4.10
2023-04-20T00:53:23.055Z,3.67
2023-04-20T00:55:51.474Z,3.80
2023-04-20T00:58:19.104Z,4.47
2023-04-20T01:00:46.770Z,4.05
2023-04-20T01:03:14.768Z,4.63
2023-04-20T01:05:42.523Z,3.70
2023-04-20T01:08:11.039Z,4.47
2023-04-20T01:10:38.602Z,4.10
2023-04-20T01:13:07.971Z,4.78
2023-04-20T01:15:35.627Z,4.03
2023-04-20T01:18:03.731Z,4.50
2023-04-20T01:20:31.560Z,4.53
2023-04-20T01:22:59.095Z,5.00
2023-04-20T01:25:26.709Z,5.03
2023-04-20T01:27:54.245Z,4.18
2023-04-20T01:30:22.983Z,4.45
2023-04-20T01:32:50.824Z,4.45
2023-04-20T01:35:18.351Z,4.30
2023-04-20T01:37:46.019Z,4.50
2023-04-20T01:40:14.810Z,5.50
2023-04-20T01:42:42.380Z,5.80
2023-04-20T01:45:11.182Z,5.50
2023-04-20T01:47:39.067Z,4.40
2023-04-20T01:50:08.582Z,3.83
2023-04-20T01:52:36.232Z,6.15
2023-04-20T01:55:04.037Z,5.38
2023-04-20T01:57:31.970Z,5.13
2023-04-20T01:59:59.951Z,4.88
2023-04-20T02:02:27.906Z,4.88
2023-04-20T02:04:55.610Z,5.25
2023-04-20T02:07:23.175Z,5.75
2023-04-20T02:09:50.729Z,5.65
2023-04-20T02:12:18.364Z,5.68
2023-04-20T02:14:46.093Z,4.68
2023-04-20T02:17:15.100Z,5.78
2023-04-20T02:19:42.792Z,4.30
2023-04-20T02:22:10.481Z,5.78
2023-04-20T02:24:38.048Z,4.95
2023-04-20T02:27:05.953Z,5.38
2023-04-20T02:29:33.509Z,5.22
2023-04-20T02:32:01.208Z,5.40
2023-04-20T02:34:28.870Z,5.18
2023-04-20T02:36:57.714Z,5.50
2023-04-20T02:39:25.477Z,5.65
2023-04-20T02:41:55.082Z,5.10
2023-04-20T02:44:22.953Z,5.82
2023-04-20T02:46:50.828Z,6.32
2023-04-20T02:49:19.613Z,7.70
2023-04-20T02:51:47.743Z,7.40
2023-04-20T02:54:15.669Z,6.07
2023-04-20T02:56:43.392Z,6.38
2023-04-20T02:59:11.693Z,6.57
2023-04-20T03:01:39.293Z,7.35
2023-04-20T03:04:16.385Z,6.55
2023-04-20T03:06:51.837Z,7.35
2023-04-20T03:09:25.463Z,6.88
2023-04-20T03:12:02.590Z,7.40
2023-04-20T03:14:53.209Z,7.53
2023-04-20T03:17:26.129Z,8.90
2023-04-20T03:19:53.696Z,8.45
2023-04-20T03:22:21.231Z,9.07
2023-04-20T03:24:53.587Z,9.68
2023-04-20T03:27:45.072Z,8.90
2023-04-20T03:30:14.972Z,8.10
2023-04-20T03:32:43.880Z,8.70
2023-04-20T03:35:11.687Z,9.63
2023-04-20T03:37:40.993Z,8.40
2023-04-20T03:40:09.470Z,10.65
2023-04-20T03:42:39.749Z,11.15
2023-04-20T03:45:07.861Z,10.02
2023-04-20T03:47:36.063Z,9.30
2023-04-20T03:50:04.271Z,9.18
2023-04-20T03:52:32.455Z,10.17
2023-04-20T03:55:04.581Z,9.43
2023-04-20T03:57:33.809Z,10.95
2023-04-20T04:00:04.619Z,9.63
2023-04-20T04:02:46.380Z,9.73
2023-04-20T04:05:17.938Z,10.27
2023-04-20T04:07:45.513Z,10.98
2023-04-20T04:10:14.253Z,10.32
2023-04-20T04:12:41.823Z,11.38
2023-04-20T04:15:10.798Z,10.55
2023-04-20T04:17:46.051Z,11.45
2023-04-20T04:20:15.136Z,11.32
2023-04-20T04:22:43.360Z,10.93
2023-04-20T04:25:46.307Z,10.63
2023-04-20T04:28:14.953Z,11.25
2023-04-20T04:30:55.557Z,11.15
2023-04-20T04:33:25.442Z,12.18
2023-04-20T04:35:55.439Z,10.88
2023-04-20T04:38:23.693Z,11.32
2023-04-20T04:40:52.461Z,11.68
2023-04-20T04:43:20.597Z,12.30
2023-04-20T04:45:58.956Z,11.50
2023-04-20T04:48:29.066Z,11.38
2023-04-20T04:50:56.636Z,12.15
2023-04-20T04:53:24.341Z,12.07
2023-04-20T04:55:51.974Z,12.55
2023-04-20T04:58:19.640Z,12.38
2023-04-20T05:00:48.169Z,12.65
2023-04-20T05:03:16.487Z,12.68
2023-04-20T05:05:44.164Z,12.63
2023-04-20T05:08:12.282Z,12.02
2023-04-20T05:10:39.955Z,12.15
2023-04-20T05:13:07.439Z,12.77
2023-04-20T05:15:35.073Z,12.93
2023-04-20T05:18:02.917Z,13.70
2023-04-20T05:20:31.252Z,12.77
2023-04-20T05:22:58.835Z,12.70
2023-04-20T05:25:27.730Z,12.73
2023-04-20T05:27:55.234Z,11.10
2023-04-20T05:30:22.763Z,12.93
2023-04-20T05:32:52.515Z,12.63
2023-04-20T05:35:21.594Z,12.10
2023-04-20T05:37:49.399Z,11.60
2023-04-20T05:40:19.441Z,11.48
2023-04-20T05:42:47.257Z,10.55
2023-04-20T05:45:14.724Z,10.90
2023-04-20T05:47:42.503Z,9.57
2023-04-20T05:50:10.606Z,10.13
2023-04-20T05:52:38.184Z,10.43
2023-04-20T05:55:06.270Z,9.80
2023-04-20T05:57:34.025Z,9.65
2023-04-20T06:00:03.691Z,10.10
2023-04-20T06:02:40.819Z,9.52
2023-04-20T06:05:10.519Z,10.50
2023-04-20T06:10:06.891Z,8.70
2023-04-20T06:12:35.469Z,8.60
2023-04-20T06:15:04.972Z,8.82
2023-04-20T06:17:36.215Z,8.70
2023-04-20T06:20:05.167Z,7.40
2023-04-20T06:22:32.827Z,8.60
2023-04-20T06:25:00.894Z,9.43
2023-04-20T06:27:28.539Z,7.82
2023-04-20T06:29:56.379Z,8.10
2023-04-20T06:32:27.777Z,7.28
2023-04-20T06:34:55.529Z,7.43
2023-04-20T06:37:23.093Z,7.10
2023-04-20T06:39:55.068Z,7.20
2023-04-20T06:42:23.114Z,7.00
2023-04-20T06:44:51.194Z,8.13
2023-04-20T06:47:18.805Z,7.88
2023-04-20T06:49:46.459Z,8.30
2023-04-20T06:52:13.944Z,7.60
2023-04-20T06:54:41.769Z,6.00
2023-04-20T06:57:09.401Z,7.90
2023-04-20T06:59:36.864Z,7.43
2023-04-20T07:02:04.598Z,6.43
2023-04-20T07:04:32.420Z,8.23
2023-04-20T07:07:00.081Z,7.28
2023-04-20T07:09:28.042Z,6.20
2023-04-20T07:11:56.493Z,7.38
2023-04-20T07:14:24.021Z,8.13
2023-04-20T07:16:55.149Z,6.95
2023-04-20T07:19:22.834Z,6.90
2023-04-20T07:21:50.459Z,7.38
2023-04-20T07:24:18.003Z,6.90
2023-04-20T07:26:45.801Z,7.18
2023-04-20T07:29:13.491Z,6.18
2023-04-20T07:31:41.463Z,5.95
2023-04-20T07:34:09.110Z,6.35
2023-04-20T07:36:39.030Z,6.90
2023-04-20T07:41:34.817Z,6.47
2023-04-20T07:44:02.323Z,5.90
2023-04-20T07:46:30.039Z,5.68
2023-04-20T07:48:57.606Z,5.80
2023-04-20T07:51:25.388Z,5.65
2023-04-20T07:53:53.432Z,5.68
2023-04-20T07:56:21.102Z,5.03
2023-04-20T07:58:49.004Z,5.38
2023-04-20T08:01:16.524Z,4.72
2023-04-20T08:03:44.229Z,5.90
2023-04-20T08:06:12.047Z,5.20
2023-04-20T08:08:39.622Z,4.53
2023-04-20T08:11:08.211Z,4.72
2023-04-20T08:13:39.102Z,5.82
2023-04-20T08:16:07.810Z,5.00
2023-04-20T08:18:38.186Z,5.57
2023-04-20T08:21:06.115Z,5.13
2023-04-20T08:23:33.678Z,5.22
2023-04-20T08:26:01.349Z,4.60
2023-04-20T08:28:33.310Z,5.05
2023-04-20T08:31:02.808Z,4.65
2023-04-20T08:33:32.243Z,4.40
2023-04-20T08:35:59.777Z,4.47
2023-04-20T08:38:33.712Z,4.88
2023-04-20T08:41:02.670Z,3.72
2023-04-20T08:43:30.584Z,4.13
2023-04-20T08:46:01.397Z,4.10
2023-04-20T08:48:36.386Z,4.43
2023-04-20T08:51:05.249Z,3.92
2023-04-20T08:53:33.254Z,3.83
2023-04-20T08:56:05.369Z,3.63
2023-04-20T08:58:33.267Z,3.50
2023-04-20T09:01:01.967Z,3.78
2023-04-20T09:03:41.140Z,3.65
2023-04-20T09:06:16.991Z,3.28
2023-04-20T09:08:46.543Z,2.95
2023-04-20T09:11:28.365Z,2.97
2023-04-20T09:14:13.200Z,3.20
2023-04-20T09:16:53.860Z,2.40
2023-04-20T09:19:26.390Z,2.67
2023-04-20T09:22:05.354Z,3.28
2023-04-20T09:24:35.464Z,3.35
2023-04-20T09:29:41.760Z,3.20
2023-04-20T09:32:19.849Z,3.17
2023-04-20T09:34:47.460Z,3.55
2023-04-20T09:37:18.923Z,3.42
2023-04-20T09:39:47.189Z,2.88
2023-04-20T09:42:16.869Z,3.15
2023-04-20T09:44:44.592Z,2.97
2023-04-20T09:47:21.542Z,3.08
2023-04-20T09:49:49.960Z,2.63
2023-04-20T09:52:18.890Z,2.85
2023-04-20T09:54:46.835Z,2.80
2023-04-20T09:57:15.254Z,2.88
2023-04-20T09:59:44.129Z,2.78
2023-04-20T10:02:13.336Z,2.53
2023-04-20T10:04:57.372Z,2.90
2023-04-20T10:07:32.890Z,3.42
2023-04-20T10:10:07.872Z,3.00
2023-04-20T10:12:56.854Z,3.25
2023-04-20T10:15:36.072Z,2.53
2023-04-20T10:18:15.494Z,2.63
2023-04-20T10:20:43.270Z,3.58
2023-04-20T10:23:11.757Z,3.05
2023-04-20T10:25:39.396Z,2.90
2023-04-20T10:28:10.545Z,2.72
2023-04-20T10:30:51.561Z,2.88
2023-04-20T10:33:19.818Z,2.78
2023-04-20T10:35:54.681Z,3.03
2023-04-20T10:38:32.692Z,3.28
2023-04-20T10:41:27.221Z,3.35
2023-04-20T10:43:55.044Z,2.67
2023-04-20T10:46:25.554Z,2.70
2023-04-20T10:48:53.817Z,3.97
2023-04-20T10:51:22.342Z,2.80
2023-04-20T10:54:19.570Z,2.30
2023-04-20T11:00:38.353Z,2.63
2023-04-20T11:03:06.504Z,2.40
2023-04-20T11:05:34.108Z,2.65
2023-04-20T11:08:01.980Z,3.28
2023-04-20T11:10:40.452Z,2.30
2023-04-20T11:13:29.097Z,2.13
2023-04-20T11:15:56.888Z,3.25
2023-04-20T11:18:24.489Z,2.40
2023-04-20T11:20:53.254Z,1.70
2023-04-20T11:23:22.703Z,1.92
2023-04-20T11:25:57.674Z,1.52
2023-04-20T11:28:30.516Z,1.80
2023-04-20T11:30:58.146Z,1.83
2023-04-20T11:33:29.276Z,2.25
2023-04-20T11:36:02.824Z,1.80
2023-04-20T11:38:34.154Z,1.55
2023-04-20T11:43:32.625Z,1.52
2023-04-20T11:46:03.469Z,1.98
2023-04-20T11:48:32.028Z,2.38
2023-04-20T11:50:59.625Z,1.60
2023-04-20T11:53:27.214Z,2.13
2023-04-20T11:55:55.968Z,2.17
2023-04-20T11:58:23.525Z,1.67
2023-04-20T12:00:51.432Z,2.28
2023-04-20T12:03:19.110Z,2.35
2023-04-20T12:05:47.167Z,2.28
2023-04-20T12:08:17.185Z,2.20
2023-04-20T12:10:45.117Z,2.78
2023-04-20T12:13:12.890Z,1.95
2023-04-20T12:15:40.438Z,2.35
2023-04-20T12:18:08.137Z,2.05
2023-04-20T12:20:36.052Z,3.03
2023-04-20T12:23:03.734Z,1.98
2023-04-20T12:25:31.792Z,1.80
2023-04-20T12:27:59.406Z,2.35
2023-04-20T12:30:29.846Z,2.15
2023-04-20T12:32:57.478Z,1.80
2023-04-20T12:35:25.201Z,1.88
2023-04-20T12:37:52.715Z,1.63
2023-04-20T12:40:20.446Z,1.50
2023-04-20T12:42:48.487Z,1.77
2023-04-20T12:45:16.192Z,1.60
2023-04-20T12:47:43.853Z,1.65
2023-04-20T12:50:11.693Z,1.52
2023-04-20T12:52:39.906Z,1.35
2023-04-20T12:55:08.432Z,1.50
2023-04-20T12:57:36.413Z,2.47
2023-04-20T13:00:05.460Z,1.48
2023-04-20T13:02:33.611Z,1.67
2023-04-20T13:05:01.258Z,1.73
2023-04-20T13:07:28.791Z,1.35
2023-04-20T13:09:56.368Z,1.10
2023-04-20T13:12:24.300Z,1.27
2023-04-20T13:14:52.215Z,1.98
2023-04-20T13:17:20.068Z,0.80
2023-04-20T13:19:50.955Z,1.70
2023-04-20T13:22:21.657Z,1.05
2023-04-20T13:24:49.378Z,1.30
2023-04-20T13:27:17.036Z,0.90
2023-04-20T13:29:44.560Z,1.13
2023-04-20T13:32:12.624Z,1.10
2023-04-20T13:34:40.255Z,0.80
2023-04-20T13:37:07.965Z,0.90
2023-04-20T13:39:36.077Z,0.80
2023-04-20T13:42:04.175Z,0.93
2023-04-20T13:44:31.811Z,0.73
2023-04-20T13:47:02.008Z,0.70
2023-04-20T13:49:29.764Z,0.80
2023-04-20T13:51:57.454Z,0.82
2023-04-20T13:54:24.946Z,0.88
2023-04-20T13:56:52.466Z,0.52
2023-04-20T13:59:20.144Z,0.60
2023-04-20T14:01:50.723Z,0.63
2023-04-20T14:04:21.663Z,0.63
2023-04-20T14:06:49.633Z,0.70
2023-04-20T14:09:17.237Z,0.70
2023-04-20T14:11:46.381Z,0.70
2023-04-20T14:14:14.046Z,0.70
2023-04-20T14:16:48.833Z,0.70
2023-04-20T14:19:16.697Z,1.50
2023-04-20T14:21:46.663Z,0.80
2023-04-20T14:26:42.416Z,0.60
2023-04-20T14:29:10.063Z,0.65
2023-04-20T14:31:37.793Z,0.70
2023-04-20T14:34:05.582Z,0.90
2023-04-20T14:36:33.450Z,0.50
2023-04-20T14:39:01.607Z,0.60
2023-04-20T14:41:33.019Z,0.70
2023-04-20T14:44:01.100Z,0.70
2023-04-20T14:46:29.042Z,0.70
2023-04-20T14:48:59.029Z,0.50
2023-04-20T14:51:28.359Z,0.65
2023-04-20T14:53:55.926Z,0.85
2023-04-20T14:56:23.725Z,0.55
2023-04-20T14:58:51.373Z,0.60
2023-04-20T15:01:18.941Z,0.77
2023-04-20T15:03:46.616Z,0.50
2023-04-20T15:06:14.442Z,0.77
2023-04-20T15:08:42.502Z,0.75
2023-04-20T15:11:10.050Z,0.90
2023-04-20T15:13:41.102Z,1.05
2023-04-20T15:16:09.364Z,0.95
2023-04-20T15:18:36.863Z,0.70
2023-04-20T15:21:04.947Z,0.32
2023-04-20T15:23:32.436Z,0.40
2023-04-20T15:26:03.101Z,0.77
2023-04-20T15:28:30.721Z,0.40
2023-04-20T15:30:58.397Z,0.40
2023-04-20T15:33:26.006Z,0.70
2023-04-20T15:35:53.534Z,0.70
2023-04-20T15:38:21.139Z,0.77
2023-04-20T15:40:48.635Z,0.68
2023-04-20T15:43:16.258Z,0.60
2023-04-20T15:45:44.799Z,1.08
2023-04-20T15:48:12.617Z,0.52
2023-04-20T15:50:40.142Z,0.70
2023-04-20T15:53:07.853Z,0.70
2023-04-20T15:55:39.713Z,0.73
2023-04-20T15:58:07.261Z,0.52
2023-04-20T16:00:40.086Z,0.63
2023-04-20T16:03:07.909Z,0.70
2023-04-20T16:05:35.882Z,0.68
2023-04-20T16:08:03.554Z,0.68
2023-04-20T16:10:32.134Z,0.75
2023-04-20T16:12:59.785Z,0.90
2023-04-20T16:15:27.392Z,0.80
2023-04-20T16:17:55.076Z,0.95
2023-04-20T16:20:22.944Z,0.65
2023-04-20T16:22:50.638Z,0.73
2023-04-20T16:25:22.532Z,2.53
2023-04-20T16:27:51.744Z,0.80
2023-04-20T16:30:19.457Z,0.73
2023-04-20T16:32:47.198Z,0.80
2023-04-20T16:35:14.879Z,0.82
2023-04-20T16:37:44.741Z,0.85
2023-04-20T16:40:12.416Z,0.95
2023-04-20T16:42:39.988Z,0.80
2023-04-20T16:45:08.115Z,1.05
2023-04-20T16:47:36.024Z,0.90
2023-04-20T16:50:09.904Z,0.90
2023-04-20T16:52:37.837Z,1.50
2023-04-20T16:55:08.377Z,1.33
2023-04-20T16:57:36.123Z,2.13
2023-04-20T17:00:06.564Z,1.35
2023-04-20T17:02:36.554Z,1.60
2023-04-20T17:07:32.589Z,1.95
2023-04-20T17:10:03.049Z,1.80
2023-04-20T17:12:33.448Z,1.55
2023-04-20T17:15:02.237Z,1.30
2023-04-20T17:17:29.886Z,2.13
2023-04-20T17:19:57.644Z,1.40
2023-04-20T17:22:26.057Z,1.60
2023-04-20T17:24:54.441Z,1.40
2023-04-20T17:27:23.067Z,1.52
2023-04-20T17:29:51.674Z,1.30
2023-04-20T17:32:19.549Z,2.08
2023-04-20T17:34:48.756Z,2.03
2023-04-20T17:37:17.048Z,1.63
2023-04-20T17:39:45.341Z,1.63
2023-04-20T17:42:13.586Z,1.40
2023-04-20T17:44:43.301Z,1.40
2023-04-20T17:47:14.828Z,1.50
2023-04-20T17:49:43.381Z,2.40
2023-04-20T17:52:12.617Z,1.63
2023-04-20T17:54:40.438Z,1.60
2023-04-20T17:57:09.052Z,1.40
2023-04-20T17:59:36.645Z,2.05
2023-04-20T18:02:04.469Z,1.67
2023-04-20T18:04:32.315Z,2.13
2023-04-20T18:07:00.075Z,2.70
2023-04-20T18:09:30.404Z,4.03
2023-04-20T18:11:58.122Z,1.98
2023-04-20T18:14:25.788Z,1.90
2023-04-20T18:16:55.229Z,1.48
2023-04-20T18:19:23.083Z,1.77
2023-04-20T18:21:51.304Z,1.80
2023-04-20T18:24:19.383Z,2.22
2023-04-20T18:26:47.070Z,1.75
2023-04-20T18:29:14.694Z,2.00
2023-04-20T18:31:45.410Z,1.63
2023-04-20T18:34:15.000Z,1.52
2023-04-20T18:36:42.736Z,1.70
2023-04-20T18:39:10.451Z,2.22
2023-04-20T18:41:41.238Z,1.60
2023-04-20T18:44:09.070Z,1.50
2023-04-20T18:46:36.682Z,1.40
2023-04-20T18:49:04.664Z,1.77
2023-04-20T18:51:33.161Z,1.90
2023-04-20T18:54:03.800Z,1.75
2023-04-20T18:56:31.400Z,2.10
2023-04-20T18:59:01.685Z,1.67
2023-04-20T19:01:31.830Z,1.60
2023-04-20T19:04:00.304Z,1.70
2023-04-20T19:06:28.174Z,1.80
2023-04-20T19:08:56.002Z,2.08
2023-04-20T19:11:23.638Z,1.83
2023-04-20T19:13:51.219Z,2.45
2023-04-20T19:16:19.658Z,2.58
2023-04-20T19:18:48.476Z,2.00
2023-04-20T19:21:16.156Z,1.88
2023-04-20T19:23:43.676Z,2.15
2023-04-20T19:26:11.375Z,2.28
2023-04-20T19:28:39.463Z,2.13
2023-04-20T19:31:09.353Z,2.17
2023-04-20T19:33:37.733Z,1.98
2023-04-20T19:36:06.588Z,1.95
2023-04-20T19:38:37.593Z,3.10
2023-04-20T19:41:06.183Z,2.10
2023-04-20T19:43:35.183Z,1.90
2023-04-20T19:46:02.764Z,2.33
2023-04-20T19:48:30.589Z,3.03
2023-04-20T19:51:03.915Z,1.88
2023-04-20T19:53:31.858Z,2.13
2023-04-20T19:56:03.556Z,2.47
2023-04-20T19:58:32.553Z,2.10
2023-04-20T20:01:00.112Z,1.70
2023-04-20T20:03:28.610Z,2.65
2023-04-20T20:05:56.435Z,2.40
2023-04-20T20:08:26.883Z,2.22
2023-04-20T20:10:54.441Z,2.10
2023-04-20T20:13:22.369Z,2.33
2023-04-20T20:15:52.642Z,1.77
2023-04-20T20:18:21.101Z,1.70
2023-04-20T20:20:50.600Z,2.30
2023-04-20T20:23:18.450Z,2.10
2023-04-20T20:25:46.226Z,2.35
2023-04-20T20:28:13.813Z,2.50
2023-04-20T20:30:45.094Z,2.50
2023-04-20T20:33:13.432Z,2.80
2023-04-20T20:35:41.674Z,2.13
2023-04-20T20:38:11.097Z,2.10
2023-04-20T20:40:40.050Z,2.45
2023-04-20T20:43:08.605Z,2.70
2023-04-20T20:45:37.268Z,3.13
2023-04-20T20:48:05.020Z,3.03
2023-04-20T20:50:32.672Z,3.70
2023-04-20T20:53:00.419Z,3.05
2023-04-20T20:55:27.983Z,3.60
2023-04-20T20:57:55.547Z,2.90
2023-04-20T21:00:23.109Z,3.25
2023-04-20T21:02:50.903Z,3.40
2023-04-20T21:05:18.991Z,4.45
2023-04-20T21:07:47.197Z,3.42
2023-04-20T21:10:15.171Z,4.55
2023-04-20T21:12:42.667Z,5.65
2023-04-20T21:15:10.928Z,3.50
2023-04-20T21:17:38.549Z,4.72
2023-04-20T21:20:07.205Z,5.22
2023-04-20T21:22:34.930Z,5.93
2023-04-20T21:25:02.497Z,4.20
2023-04-20T21:27:30.130Z,5.32
2023-04-20T21:29:57.717Z,5.65
2023-04-20T21:32:26.403Z,6.50
2023-04-20T21:34:54.381Z,6.05
2023-04-20T21:37:22.078Z,6.97
2023-04-20T21:39:51.189Z,6.85
2023-04-20T21:42:18.878Z,6.80
2023-04-20T21:44:46.457Z,6.88
2023-04-20T21:47:14.704Z,7.47
2023-04-20T21:49:43.838Z,7.88
2023-04-20T21:52:11.589Z,7.35
2023-04-20T21:54:41.112Z,7.50
2023-04-20T21:57:08.813Z,7.05
2023-04-20T21:59:36.414Z,7.45
2023-04-20T22:02:04.288Z,7.57
2023-04-20T22:04:32.235Z,7.50
2023-04-20T22:07:00.546Z,7.93
2023-04-20T22:09:28.094Z,7.93
2023-04-20T22:11:57.673Z,7.63
2023-04-20T22:14:25.252Z,7.70
2023-04-20T22:16:53.216Z,8.50
2023-04-20T22:19:21.222Z,9.43
2023-04-20T22:21:48.744Z,8.85
2023-04-20T22:24:16.229Z,8.77
2023-04-20T22:26:43.814Z,8.57
2023-04-20T22:29:11.384Z,8.68
2023-04-20T22:31:38.984Z,7.65
2023-04-20T22:34:06.720Z,10.43
2023-04-20T22:36:35.170Z,8.90
2023-04-20T22:39:02.812Z,8.52
2023-04-20T22:41:31.518Z,10.15
2023-04-20T22:43:58.992Z,9.10
2023-04-20T22:46:26.571Z,9.13
2023-04-20T22:48:54.497Z,9.70
2023-04-20T22:51:22.285Z,9.77
2023-04-20T22:53:49.893Z,12.02
2023-04-20T22:56:17.719Z,12.15
2023-04-20T22:58:45.618Z,12.32
2023-04-20T23:01:16.233Z,11.82
2023-04-20T23:03:44.085Z,12.80
2023-04-20T23:06:11.792Z,12.38
2023-04-20T23:08:40.031Z,12.93
2023-04-20T23:11:07.586Z,13.38
2023-04-20T23:13:37.329Z,10.77
2023-04-20T23:16:05.550Z,10.27
2023-04-20T23:18:34.418Z,9.98
2023-04-20T23:21:01.938Z,10.55
2023-04-20T23:23:29.611Z,11.00
2023-04-20T23:25:57.462Z,10.98
2023-04-20T23:28:25.006Z,9.55
2023-04-20T23:30:52.510Z,9.73
2023-04-20T23:33:20.062Z,9.43
2023-04-20T23:35:47.554Z,8.13
2023-04-20T23:38:15.073Z,7.82
2023-04-20T23:40:42.559Z,6.90
2023-04-20T23:43:10.427Z,6.13
2023-04-20T23:45:38.092Z,7.18
2023-04-20T23:48:06.005Z,5.90
2023-04-20T23:50:34.470Z,6.57
2023-04-20T23:53:02.224Z,5.30
2023-04-20T23:55:29.822Z,6.13
2023-04-20T23:57:58.426Z,6.07
